Time;durP1;ratioP1;P1;durP2;ratioP2;P2;SDS_P1;SDS_P2;PMS_P1;PMS_P2;Temp;Humidity;BMP_temperature;BMP_pressure;BME280_temperature;BME280_humidity;BME280_pressure;Samples;Min_cycle;Max_cycle;Signal;HPM_P1;HPM_P2
2023/12/22 00:00:48;;;;;;;9.95;3.28;;;;;;;;;;4953229;29;20055;-84
2023/12/22 00:03:19;;;;;;;8.93;2.92;;;;;;;;;;4937453;29;20051;-86
2023/12/22 00:05:49;;;;;;;12.25;3.28;;;;;;;;;;4953320;29;20379;-86
2023/12/22 00:08:19;;;;;;;10.63;2.97;;;;;;;;;;4955947;29;20046;-82
2023/12/22 00:10:50;;;;;;;8.65;2.63;;;;;;;;;;4940150;29;20507;-84
2023/12/22 00:13:20;;;;;;;9.07;2.60;;;;;;;;;;4940049;29;20501;-81
2023/12/22 00:15:51;;;;;;;8.98;2.70;;;;;;;;;;4955555;29;20044;-83
2023/12/22 00:18:22;;;;;;;16.70;3.72;;;;;;;;;;4939861;29;20043;-85
2023/12/22 00:20:52;;;;;;;9.57;3.38;;;;;;;;;;4939568;29;20482;-82
2023/12/22 00:23:22;;;;;;;7.88;3.13;;;;;;;;;;4956356;29;20502;-83
2023/12/22 00:25:53;;;;;;;10.30;3.25;;;;;;;;;;4940175;29;20047;-85
2023/12/22 00:28:23;;;;;;;10.98;2.83;;;;;;;;;;4956687;29;20050;-83
2023/12/22 00:30:54;;;;;;;6.68;3.33;;;;;;;;;;4955950;29;20043;-85
2023/12/22 00:33:25;;;;;;;13.68;3.53;;;;;;;;;;4939534;29;20043;-81
2023/12/22 00:35:56;;;;;;;6.95;3.00;;;;;;;;;;4955380;29;20044;-81
2023/12/22 00:38:25;;;;;;;8.05;2.50;;;;;;;;;;4922510;29;20055;-82
2023/12/22 00:40:56;;;;;;;7.72;2.53;;;;;;;;;;4956278;29;20533;-84
2023/12/22 00:43:26;;;;;;;9.77;2.65;;;;;;;;;;4922436;29;20066;-84
2023/12/22 00:45:57;;;;;;;16.95;4.45;;;;;;;;;;4938444;29;20054;-82
2023/12/22 00:48:29;;;;;;;11.98;3.42;;;;;;;;;;4937659;29;20498;-84
2023/12/22 00:50:58;;;;;;;7.25;3.45;;;;;;;;;;4938069;29;20051;-82
2023/12/22 00:53:29;;;;;;;10.00;4.10;;;;;;;;;;4956691;29;20062;-86
2023/12/22 00:56:02;;;;;;;12.77;4.05;;;;;;;;;;4937903;29;20506;-83
2023/12/22 00:58:32;;;;;;;8.88;3.67;;;;;;;;;;4956030;29;20063;-84
2023/12/22 01:01:04;;;;;;;11.10;3.80;;;;;;;;;;4938703;29;20047;-82
2023/12/22 01:03:39;;;;;;;13.82;3.75;;;;;;;;;;4938330;29;20055;-83
2023/12/22 01:06:09;;;;;;;9.57;3.67;;;;;;;;;;4955286;28;20039;-83
2023/12/22 01:08:39;;;;;;;11.30;3.15;;;;;;;;;;4937772;29;20059;-83
2023/12/22 01:11:11;;;;;;;7.60;3.20;;;;;;;;;;4955711;29;20051;-85
2023/12/22 01:14:16;;;;;;;;;;;;;;;;;;;;;
2023/12/22 01:17:02;;;;;;;10.00;2.47;;;;;;;;;;4936892;29;20410;-86
2023/12/22 01:19:32;;;;;;;5.53;2.83;;;;;;;;;;4955627;29;20058;-86
2023/12/22 01:22:03;;;;;;;5.18;2.35;;;;;;;;;;4939235;29;20522;-86
2023/12/22 01:24:33;;;;;;;4.93;2.25;;;;;;;;;;4939443;29;20051;-86
2023/12/22 01:27:03;;;;;;;9.80;2.60;;;;;;;;;;4938639;29;20051;-85
2023/12/22 01:29:33;;;;;;;11.50;3.08;;;;;;;;;;4937816;29;20055;-84
2023/12/22 01:32:04;;;;;;;14.57;3.38;;;;;;;;;;4939393;29;20490;-83
2023/12/22 01:35:03;;;;;;;6.80;2.92;;;;;;;;;;4923991;29;20051;-86
2023/12/22 01:37:33;;;;;;;12.35;2.72;;;;;;;;;;4957186;29;20553;-86
2023/12/22 01:40:05;;;;;;;9.88;3.10;;;;;;;;;;4938670;29;20066;-84
2023/12/22 01:42:36;;;;;;;12.57;3.85;;;;;;;;;;4936798;29;20473;-84
2023/12/22 01:45:08;;;;;;;8.65;3.45;;;;;;;;;;4938347;29;20078;-86
2023/12/22 01:47:39;;;;;;;12.75;3.58;;;;;;;;;;4954012;29;20050;-87
2023/12/22 01:50:11;;;;;;;6.60;3.28;;;;;;;;;;4922315;29;20066;-83
2023/12/22 01:52:43;;;;;;;14.63;4.22;;;;;;;;;;4937646;29;20391;-85
2023/12/22 01:55:17;;;;;;;8.10;2.80;;;;;;;;;;4938231;29;20055;-84
2023/12/22 01:57:47;;;;;;;16.05;3.63;;;;;;;;;;4921988;29;20051;-85
2023/12/22 02:00:19;;;;;;;14.05;3.92;;;;;;;;;;4938518;29;20055;-86
2023/12/22 02:02:49;;;;;;;9.73;3.22;;;;;;;;;;4937309;29;20443;-84
2023/12/22 02:05:20;;;;;;;10.40;2.55;;;;;;;;;;4937305;29;20059;-84
2023/12/22 02:07:50;;;;;;;9.43;2.42;;;;;;;;;;4937950;29;20062;-87
2023/12/22 02:10:22;;;;;;;10.55;2.85;;;;;;;;;;4955357;29;20043;-86
2023/12/22 02:12:52;;;;;;;17.58;3.45;;;;;;;;;;4955139;29;20054;-84
2023/12/22 02:15:23;;;;;;;17.65;4.22;;;;;;;;;;4938302;29;20058;-85
2023/12/22 02:18:05;;;;;;;9.20;2.72;;;;;;;;;;4955602;28;20043;-87
2023/12/22 02:20:35;;;;;;;10.25;3.05;;;;;;;;;;4958585;29;20047;-83
2023/12/22 02:23:06;;;;;;;8.15;2.95;;;;;;;;;;4941254;29;20059;-85
2023/12/22 02:25:36;;;;;;;6.03;2.90;;;;;;;;;;4958265;29;20418;-85
2023/12/22 02:28:15;;;;;;;20.25;3.35;;;;;;;;;;4958429;29;20050;-85
2023/12/22 02:30:54;;;;;;;12.38;3.38;;;;;;;;;;4942443;29;20356;-87
2023/12/22 02:33:28;;;;;;;10.75;2.80;;;;;;;;;;4940360;29;20082;-86
2023/12/22 02:36:04;;;;;;;10.10;3.25;;;;;;;;;;4942207;29;20120;-86
2023/12/22 02:38:36;;;;;;;9.27;2.90;;;;;;;;;;4958575;29;20048;-85
2023/12/22 02:41:06;;;;;;;12.52;3.67;;;;;;;;;;4941326;29;20064;-86
2023/12/22 02:43:36;;;;;;;13.07;3.47;;;;;;;;;;4940811;29;20058;-86
2023/12/22 02:46:14;;;;;;;8.57;2.70;;;;;;;;;;4958575;29;20065;-86
2023/12/22 02:48:45;;;;;;;9.70;3.70;;;;;;;;;;4924719;29;20402;-86
2023/12/22 02:51:15;;;;;;;8.65;2.92;;;;;;;;;;4925373;29;20478;-88
2023/12/22 02:53:45;;;;;;;14.02;2.92;;;;;;;;;;4940709;29;20055;-85
2023/12/22 02:56:15;;;;;;;9.05;3.00;;;;;;;;;;4958019;29;20055;-86
2023/12/22 02:58:45;;;;;;;9.70;2.78;;;;;;;;;;4939573;29;20051;-87
2023/12/22 03:01:15;;;;;;;13.63;2.83;;;;;;;;;;4940234;29;20062;-87
2023/12/22 03:03:45;;;;;;;11.25;3.05;;;;;;;;;;4939790;29;20059;-86
2023/12/22 03:06:16;;;;;;;10.65;2.83;;;;;;;;;;4940971;29;20051;-88
2023/12/22 03:08:47;;;;;;;10.32;3.00;;;;;;;;;;4962661;29;20058;-87
2023/12/22 03:11:17;;;;;;;9.18;2.90;;;;;;;;;;4947990;29;20509;-85
2023/12/22 03:13:47;;;;;;;17.27;3.58;;;;;;;;;;4952457;29;20051;-86
2023/12/22 03:16:17;;;;;;;7.90;3.30;;;;;;;;;;4953798;29;20059;-85
2023/12/22 03:18:48;;;;;;;11.05;3.92;;;;;;;;;;4934965;29;20055;-85
2023/12/22 03:21:19;;;;;;;11.80;3.38;;;;;;;;;;4939739;29;20066;-87
2023/12/22 03:23:50;;;;;;;9.55;2.88;;;;;;;;;;4939301;29;20059;-86
2023/12/22 03:26:19;;;;;;;11.30;3.63;;;;;;;;;;4933943;28;20051;-87
2023/12/22 03:28:50;;;;;;;13.73;3.28;;;;;;;;;;4972140;28;20058;-86
2023/12/22 03:31:21;;;;;;;7.35;3.03;;;;;;;;;;4945884;28;20062;-86
2023/12/22 03:33:51;;;;;;;8.05;2.90;;;;;;;;;;4958431;29;20047;-87
2023/12/22 03:36:22;;;;;;;8.63;3.35;;;;;;;;;;4925215;29;20051;-85
2023/12/22 03:38:54;;;;;;;7.72;3.70;;;;;;;;;;4940642;29;20047;-86
2023/12/22 03:41:25;;;;;;;7.22;2.70;;;;;;;;;;4924729;29;20047;-87
2023/12/22 03:43:59;;;;;;;11.88;3.00;;;;;;;;;;4957632;29;20053;-86
2023/12/22 03:46:30;;;;;;;6.63;2.97;;;;;;;;;;4955827;29;20402;-86
2023/12/22 03:49:00;;;;;;;8.60;3.05;;;;;;;;;;4924309;29;20058;-86
2023/12/22 03:51:32;;;;;;;8.88;2.70;;;;;;;;;;4924042;29;20502;-85
2023/12/22 03:54:03;;;;;;;;;;;;;;;;;;4958035;29;20047;-86
2023/12/22 03:56:33;;;;;;;8.18;2.75;;;;;;;;;;4938729;29;20293;-86
2023/12/22 03:59:03;;;;;;;9.55;2.88;;;;;;;;;;4957457;29;20073;-86
2023/12/22 04:01:33;;;;;;;10.98;2.88;;;;;;;;;;4957181;29;20058;-85
2023/12/22 04:04:05;;;;;;;7.57;2.78;;;;;;;;;;4956943;29;20058;-85
2023/12/22 04:06:40;;;;;;;12.20;2.83;;;;;;;;;;4939878;29;20058;-85
2023/12/22 04:09:11;;;;;;;8.65;3.20;;;;;;;;;;4956484;29;20066;-85
2023/12/22 04:11:41;;;;;;;9.38;3.90;;;;;;;;;;4939355;29;20062;-85
2023/12/22 04:14:12;;;;;;;10.90;3.13;;;;;;;;;;4955428;29;20059;-84
2023/12/22 04:16:43;;;;;;;7.68;2.90;;;;;;;;;;4956762;29;20051;-84
2023/12/22 04:19:13;;;;;;;7.68;2.90;;;;;;;;;;4956313;29;20055;-85
2023/12/22 04:21:43;;;;;;;10.35;2.80;;;;;;;;;;4923692;29;20062;-86
2023/12/22 04:24:14;;;;;;;8.13;3.00;;;;;;;;;;4956277;29;20058;-87
2023/12/22 04:26:45;;;;;;;;;;;;;;;;;;4924197;29;20051;-86
2023/12/22 04:29:15;;;;;;;17.35;4.80;;;;;;;;;;4938361;29;20257;-86
2023/12/22 04:31:46;;;;;;;10.73;2.78;;;;;;;;;;4956954;29;20050;-86
2023/12/22 04:34:17;;;;;;;8.88;2.83;;;;;;;;;;4956447;29;20074;-86
2023/12/22 04:36:48;;;;;;;8.77;2.80;;;;;;;;;;4938136;29;20051;-87
2023/12/22 04:39:17;;;;;;;8.40;3.20;;;;;;;;;;4938636;29;20062;-87
2023/12/22 04:41:49;;;;;;;8.90;3.00;;;;;;;;;;4921855;29;20407;-86
2023/12/22 04:44:19;;;;;;;6.57;2.85;;;;;;;;;;4954893;29;20055;-86
2023/12/22 04:46:50;;;;;;;10.88;3.08;;;;;;;;;;4938562;29;20387;-86
2023/12/22 04:49:22;;;;;;;9.85;3.00;;;;;;;;;;4955719;29;20055;-85
2023/12/22 04:51:53;;;;;;;7.50;2.83;;;;;;;;;;4955352;29;20471;-86
2023/12/22 04:54:26;;;;;;;13.95;3.80;;;;;;;;;;4954095;29;20054;-86
2023/12/22 04:56:58;;;;;;;8.27;3.10;;;;;;;;;;4923068;29;20055;-87
2023/12/22 04:59:30;;;;;;;5.68;2.60;;;;;;;;;;4937872;29;20499;-86
2023/12/22 05:02:00;;;;;;;8.85;3.40;;;;;;;;;;4939257;29;20487;-85
2023/12/22 05:04:30;;;;;;;8.90;3.28;;;;;;;;;;4938158;29;20055;-86
2023/12/22 05:07:06;;;;;;;7.80;2.88;;;;;;;;;;4955783;29;20069;-85
2023/12/22 05:09:42;;;;;;;6.40;3.15;;;;;;;;;;4955599;29;20394;-85
2023/12/22 05:12:14;;;;;;;10.07;3.50;;;;;;;;;;4937690;29;20392;-85
2023/12/22 05:14:45;;;;;;;6.68;3.03;;;;;;;;;;4955671;29;20035;-86
2023/12/22 05:17:16;;;;;;;11.60;3.08;;;;;;;;;;4954110;29;20047;-86
2023/12/22 05:19:47;;;;;;;9.48;3.53;;;;;;;;;;4938118;29;20047;-85
2023/12/22 05:22:19;;;;;;;8.13;3.20;;;;;;;;;;4937940;29;20402;-85
2023/12/22 05:24:49;;;;;;;8.75;3.30;;;;;;;;;;4955676;29;20039;-85
2023/12/22 05:27:20;;;;;;;12.43;3.13;;;;;;;;;;4955841;29;20051;-86
2023/12/22 05:29:51;;;;;;;7.22;2.67;;;;;;;;;;4937872;29;20062;-86
2023/12/22 05:32:21;;;;;;;10.70;3.15;;;;;;;;;;4937945;29;20066;-85
2023/12/22 05:34:53;;;;;;;7.35;2.85;;;;;;;;;;4953986;29;20055;-87
2023/12/22 05:37:23;;;;;;;12.80;3.10;;;;;;;;;;4922688;29;20058;-86
2023/12/22 05:39:53;;;;;;;10.00;3.05;;;;;;;;;;4937771;29;20055;-85
2023/12/22 05:42:23;;;;;;;10.70;2.80;;;;;;;;;;4937283;29;20412;-87
2023/12/22 05:44:55;;;;;;;12.18;3.25;;;;;;;;;;4937869;29;20498;-86
2023/12/22 05:47:25;;;;;;;9.45;3.33;;;;;;;;;;4922501;29;20058;-85
2023/12/22 05:49:56;;;;;;;8.77;3.55;;;;;;;;;;4922435;29;20058;-87
2023/12/22 05:52:27;;;;;;;8.23;2.72;;;;;;;;;;4937776;29;20058;-87
2023/12/22 05:54:57;;;;;;;13.18;3.25;;;;;;;;;;4938272;29;20065;-87
2023/12/22 05:57:27;;;;;;;10.68;2.92;;;;;;;;;;4938445;29;20046;-87
2023/12/22 05:59:57;;;;;;;7.63;3.13;;;;;;;;;;4953196;29;20047;-87
2023/12/22 06:02:27;;;;;;;10.32;3.00;;;;;;;;;;4953354;29;20479;-86
2023/12/22 06:04:57;;;;;;;10.02;3.03;;;;;;;;;;4955494;29;20051;-86
2023/12/22 06:07:28;;;;;;;7.93;3.00;;;;;;;;;;4954762;29;20040;-86
2023/12/22 06:09:58;;;;;;;9.77;2.90;;;;;;;;;;4954904;29;20114;-85
2023/12/22 06:12:29;;;;;;;6.50;3.05;;;;;;;;;;4937359;29;20047;-87
2023/12/22 06:14:59;;;;;;;11.50;3.50;;;;;;;;;;4954827;29;20048;-87
2023/12/22 06:17:30;;;;;;;9.38;3.03;;;;;;;;;;4953043;29;20047;-86
2023/12/22 06:20:00;;;;;;;6.82;3.38;;;;;;;;;;4937362;29;20058;-86
2023/12/22 06:22:30;;;;;;;6.22;3.10;;;;;;;;;;4937178;29;20052;-88
2023/12/22 06:25:07;;;;;;;8.02;3.22;;;;;;;;;;4937303;29;20059;-85
2023/12/22 06:27:37;;;;;;;14.57;3.80;;;;;;;;;;4953292;29;20058;-87
2023/12/22 06:30:09;;;;;;;12.75;3.08;;;;;;;;;;4953901;29;20055;-86
2023/12/22 06:32:41;;;;;;;11.75;3.58;;;;;;;;;;4938060;29;20113;-86
2023/12/22 06:35:12;;;;;;;9.95;3.30;;;;;;;;;;4938250;29;20058;-86
2023/12/22 06:37:45;;;;;;;7.70;2.65;;;;;;;;;;4939148;29;20050;-88
2023/12/22 06:40:17;;;;;;;11.80;3.35;;;;;;;;;;4937231;29;20384;-86
2023/12/22 06:42:47;;;;;;;6.93;2.72;;;;;;;;;;4921569;29;20055;-85
2023/12/22 06:45:18;;;;;;;5.95;2.78;;;;;;;;;;4955348;29;20047;-87
2023/12/22 06:47:47;;;;;;;14.77;3.08;;;;;;;;;;4921660;29;20066;-86
2023/12/22 06:50:19;;;;;;;;;;;;;;;;;;4954971;29;20043;-85
2023/12/22 06:52:51;;;;;;;11.85;3.08;;;;;;;;;;4922253;29;19922;-86
2023/12/22 06:55:21;;;;;;;10.95;3.30;;;;;;;;;;4937387;29;20063;-87
2023/12/22 06:57:51;;;;;;;7.82;3.25;;;;;;;;;;4936718;29;20058;-86
2023/12/22 07:00:22;;;;;;;5.97;3.13;;;;;;;;;;4936824;29;20481;-86
2023/12/22 07:02:52;;;;;;;10.30;3.30;;;;;;;;;;4937987;29;20055;-86
2023/12/22 07:05:26;;;;;;;13.05;3.05;;;;;;;;;;4939288;29;20052;-86
2023/12/22 07:07:56;;;;;;;6.45;3.17;;;;;;;;;;4925549;29;20062;-86
2023/12/22 07:10:27;;;;;;;7.55;2.97;;;;;;;;;;4956211;29;20055;-85
2023/12/22 07:12:58;;;;;;;10.55;2.83;;;;;;;;;;4940800;29;20055;-87
2023/12/22 07:15:29;;;;;;;8.20;2.97;;;;;;;;;;4957141;29;20054;-86
2023/12/22 07:18:01;;;;;;;7.47;3.63;;;;;;;;;;4941578;29;20509;-87
2023/12/22 07:20:31;;;;;;;11.20;3.05;;;;;;;;;;4924483;29;20051;-85
2023/12/22 07:23:04;;;;;;;8.13;3.17;;;;;;;;;;4939670;29;20055;-86
2023/12/22 07:25:40;;;;;;;;;;;;;;;;;;4941712;29;20055;-86
2023/12/22 07:28:10;;;;;;;8.18;3.15;;;;;;;;;;4940475;29;20270;-85
2023/12/22 07:30:42;;;;;;;13.20;3.80;;;;;;;;;;4924614;29;20499;-86
2023/12/22 07:33:13;;;;;;;10.30;3.25;;;;;;;;;;4941044;29;20484;-87
2023/12/22 07:35:44;;;;;;;10.50;3.83;;;;;;;;;;4924091;29;20055;-86
2023/12/22 07:38:15;;;;;;;11.73;3.08;;;;;;;;;;4923396;29;20052;-86
2023/12/22 07:40:45;;;;;;;7.93;3.13;;;;;;;;;;4923104;29;20047;-85
2023/12/22 07:43:17;;;;;;;9.88;3.85;;;;;;;;;;4924094;29;20381;-87
2023/12/22 07:45:50;;;;;;;8.63;2.92;;;;;;;;;;4956447;29;20043;-86
2023/12/22 07:48:21;;;;;;;8.73;3.65;;;;;;;;;;4940848;29;20055;-85
2023/12/22 07:50:53;;;;;;;;;;;;;;;;;;4924678;29;20051;-85
2023/12/22 07:53:25;;;;;;;6.93;2.80;;;;;;;;;;4956141;29;19927;-86
2023/12/22 07:55:55;;;;;;;7.22;3.13;;;;;;;;;;4939977;29;20063;-86
2023/12/22 07:58:26;;;;;;;10.70;2.92;;;;;;;;;;4924225;29;20062;-86
2023/12/22 08:00:58;;;;;;;12.45;2.95;;;;;;;;;;4921639;29;21117;-85
2023/12/22 08:03:33;;;;;;;6.78;3.03;;;;;;;;;;4938568;29;20082;-87
2023/12/22 08:06:05;;;;;;;9.80;3.22;;;;;;;;;;4939908;29;20039;-86
2023/12/22 08:08:40;;;;;;;9.80;3.50;;;;;;;;;;4957116;29;20383;-85
2023/12/22 08:11:11;;;;;;;9.57;3.08;;;;;;;;;;4939487;29;20047;-85
2023/12/22 08:13:42;;;;;;;10.23;3.20;;;;;;;;;;4923582;29;20051;-85
2023/12/22 08:16:13;;;;;;;14.10;3.45;;;;;;;;;;4923918;29;20490;-86
2023/12/22 08:18:44;;;;;;;8.90;3.00;;;;;;;;;;4923482;29;20074;-86
2023/12/22 08:21:16;;;;;;;9.35;3.05;;;;;;;;;;4956291;29;20043;-85
2023/12/22 08:24:02;;;;;;;8.93;2.95;;;;;;;;;;4938334;29;20051;-85
2023/12/22 08:26:33;;;;;;;9.77;2.80;;;;;;;;;;4922707;29;20051;-86
2023/12/22 08:29:05;;;;;;;10.38;3.10;;;;;;;;;;4938054;29;20073;-85
2023/12/22 08:31:36;;;;;;;11.35;3.72;;;;;;;;;;4923489;29;20062;-85
2023/12/22 08:34:07;;;;;;;10.57;3.30;;;;;;;;;;4939113;29;20047;-86
2023/12/22 08:36:38;;;;;;;9.30;3.72;;;;;;;;;;4938510;29;20062;-88
2023/12/22 08:39:08;;;;;;;11.10;3.92;;;;;;;;;;4935317;29;20395;-86
2023/12/22 08:41:39;;;;;;;6.28;2.92;;;;;;;;;;4906328;29;20052;-86
2023/12/22 08:44:09;;;;;;;9.23;3.28;;;;;;;;;;4954269;29;20505;-87
2023/12/22 08:46:40;;;;;;;11.65;3.72;;;;;;;;;;4954434;29;20051;-85
2023/12/22 08:49:11;;;;;;;12.52;3.35;;;;;;;;;;4939537;29;20059;-85
2023/12/22 08:51:42;;;;;;;9.85;3.58;;;;;;;;;;4956165;29;20039;-86
2023/12/22 08:54:13;;;;;;;12.35;3.30;;;;;;;;;;4939140;29;20103;-86
2023/12/22 08:56:45;;;;;;;12.82;3.65;;;;;;;;;;4950325;29;20055;-85
2023/12/22 08:59:16;;;;;;;14.95;3.50;;;;;;;;;;4918704;29;20051;-86
2023/12/22 09:01:46;;;;;;;10.75;3.92;;;;;;;;;;4935047;29;20063;-86
2023/12/22 09:04:18;;;;;;;8.60;3.72;;;;;;;;;;4920341;29;20051;-86
2023/12/22 09:06:52;;;;;;;7.20;3.22;;;;;;;;;;4951363;29;20048;-87
2023/12/22 09:09:24;;;;;;;9.85;3.55;;;;;;;;;;4946749;29;20047;-86
2023/12/22 09:11:54;;;;;;;7.65;3.00;;;;;;;;;;4961499;28;20055;-85
2023/12/22 09:14:25;;;;;;;10.95;3.20;;;;;;;;;;4937383;29;20470;-86
2023/12/22 09:16:56;;;;;;;9.30;3.85;;;;;;;;;;4936676;29;20427;-86
2023/12/22 09:19:27;;;;;;;9.48;3.28;;;;;;;;;;4936518;29;20054;-86
2023/12/22 09:21:57;;;;;;;8.23;3.53;;;;;;;;;;4938215;29;20055;-87
2023/12/22 09:24:28;;;;;;;14.30;3.70;;;;;;;;;;4922458;29;20058;-86
2023/12/22 09:27:02;;;;;;;8.27;3.40;;;;;;;;;;4937470;29;20495;-87
2023/12/22 09:29:33;;;;;;;11.38;3.65;;;;;;;;;;4922390;29;20047;-87
2023/12/22 09:32:05;;;;;;;13.07;4.15;;;;;;;;;;4922476;29;20051;-86
2023/12/22 09:34:35;;;;;;;6.38;3.65;;;;;;;;;;4922988;29;20501;-86
2023/12/22 09:37:06;;;;;;;9.77;2.65;;;;;;;;;;4953009;29;20058;-86
2023/12/22 09:39:37;;;;;;;12.23;3.17;;;;;;;;;;4938315;29;20055;-86
2023/12/22 09:42:07;;;;;;;12.05;2.97;;;;;;;;;;4922465;29;20066;-86
2023/12/22 09:44:41;;;;;;;10.77;3.25;;;;;;;;;;4938646;29;20143;-85
2023/12/22 09:47:13;;;;;;;14.52;2.78;;;;;;;;;;4954176;29;20047;-86
2023/12/22 09:49:44;;;;;;;9.38;3.38;;;;;;;;;;4938428;29;20391;-86
2023/12/22 09:52:16;;;;;;;;;;;;;;;;;;4953768;29;20058;-85
2023/12/22 09:54:49;;;;;;;11.38;3.35;;;;;;;;;;4922523;29;20289;-85
2023/12/22 09:57:19;;;;;;;;;;;;;;;;;;4955956;29;20447;-86
2023/12/22 09:59:57;;;;;;;13.95;3.97;;;;;;;;;;4955320;29;19923;-86
2023/12/22 10:02:29;;;;;;;11.50;3.42;;;;;;;;;;4952837;29;20478;-84
2023/12/22 10:05:00;;;;;;;8.57;3.40;;;;;;;;;;4954877;29;20039;-84
2023/12/22 10:07:33;;;;;;;12.68;3.15;;;;;;;;;;4955238;29;20062;-87
2023/12/22 10:10:04;;;;;;;;;;;;;;;;;;4956787;29;20486;-83
2023/12/22 10:12:36;;;;;;;8.27;2.70;;;;;;;;;;4962244;29;19930;-82
2023/12/22 10:15:10;;;;;;;9.77;3.20;;;;;;;;;;4962057;29;20047;-84
2023/12/22 10:17:41;;;;;;;9.73;2.97;;;;;;;;;;4950803;29;20051;-83
2023/12/22 10:20:11;;;;;;;9.13;3.13;;;;;;;;;;4933013;29;20391;-89
2023/12/22 10:22:42;;;;;;;14.52;3.67;;;;;;;;;;4937655;29;20055;-86
2023/12/22 10:25:17;;;;;;;10.65;3.00;;;;;;;;;;4974487;28;20031;-86
2023/12/22 10:27:47;;;;;;;13.75;3.42;;;;;;;;;;4979087;28;20027;-86
2023/12/22 10:30:19;;;;;;;13.05;3.15;;;;;;;;;;4965146;28;20043;-85
2023/12/22 10:32:54;;;;;;;11.45;2.75;;;;;;;;;;4923734;29;20506;-85
2023/12/22 10:35:26;;;;;;;7.18;3.03;;;;;;;;;;4938331;29;20501;-86
2023/12/22 10:37:57;;;;;;;10.23;2.83;;;;;;;;;;4938580;28;20101;-86
2023/12/22 10:40:32;;;;;;;11.88;3.25;;;;;;;;;;4943004;29;20054;-85
2023/12/22 10:43:02;;;;;;;7.35;2.70;;;;;;;;;;4957470;29;20482;-87
2023/12/22 10:45:33;;;;;;;12.50;3.72;;;;;;;;;;4959326;29;20402;-85
2023/12/22 10:48:05;;;;;;;14.13;3.67;;;;;;;;;;4926107;29;20058;-89
2023/12/22 10:50:35;;;;;;;;;;;;;;;;;;4942455;29;20047;-85
2023/12/22 10:53:06;;;;;;;5.72;2.17;;;;;;;;;;4958559;29;19923;-86
2023/12/22 10:55:36;;;;;;;;;;;;;;;;;;4941383;29;20047;-84
2023/12/22 10:58:06;;;;;;;6.53;2.42;;;;;;;;;;4925412;29;20261;-86
2023/12/22 11:00:40;;;;;;;9.13;2.30;;;;;;;;;;4956370;29;20054;-83
2023/12/22 11:03:17;;;;;;;4.55;1.80;;;;;;;;;;4958722;29;20047;-88
2023/12/22 11:05:49;;;;;;;3.70;1.70;;;;;;;;;;4956297;29;20055;-84
2023/12/22 11:08:21;;;;;;;4.20;2.13;;;;;;;;;;4957149;29;20055;-86
2023/12/22 11:10:57;;;;;;;8.50;1.70;;;;;;;;;;4958018;29;20039;-84
2023/12/22 11:13:28;;;;;;;3.03;1.38;;;;;;;;;;4958122;29;20047;-83
2023/12/22 11:16:00;;;;;;;3.83;1.65;;;;;;;;;;4956644;29;20498;-83
2023/12/22 11:18:32;;;;;;;4.38;1.52;;;;;;;;;;4941835;29;20055;-88
2023/12/22 11:21:07;;;;;;;4.03;1.67;;;;;;;;;;4941590;29;20047;-85
2023/12/22 11:23:38;;;;;;;3.92;1.40;;;;;;;;;;4958426;29;20055;-87
2023/12/22 11:26:12;;;;;;;5.45;1.90;;;;;;;;;;4925309;29;20055;-87
2023/12/22 11:28:45;;;;;;;6.03;1.70;;;;;;;;;;4956904;29;20054;-85
2023/12/22 11:31:15;;;;;;;5.20;2.05;;;;;;;;;;4957735;29;20044;-92
2023/12/22 11:33:51;;;;;;;7.15;2.13;;;;;;;;;;4956345;29;20063;-85
2023/12/22 11:36:39;;;;;;;5.15;1.63;;;;;;;;;;4926419;29;20051;-84
2023/12/22 11:39:09;;;;;;;5.50;1.88;;;;;;;;;;4939470;29;20074;-84
2023/12/22 11:41:41;;;;;;;7.13;1.85;;;;;;;;;;4956020;29;20051;-85
2023/12/22 11:44:12;;;;;;;6.78;1.80;;;;;;;;;;4957889;29;20043;-84
2023/12/22 11:46:44;;;;;;;6.18;1.88;;;;;;;;;;4939425;29;20048;-87
2023/12/22 11:49:15;;;;;;;3.78;1.67;;;;;;;;;;4924373;29;20056;-83
2023/12/22 11:51:45;;;;;;;6.78;1.70;;;;;;;;;;4938942;29;20055;-84
2023/12/22 11:54:46;;;;;;;5.50;1.63;;;;;;;;;;4957117;29;20056;-84
2023/12/22 11:57:33;;;;;;;5.20;1.58;;;;;;;;;;4957130;29;20387;-88
2023/12/22 12:00:06;;;;;;;6.80;1.90;;;;;;;;;;4939351;29;20051;-85
2023/12/22 12:02:41;;;;;;;8.68;2.00;;;;;;;;;;4956744;29;20047;-86
2023/12/22 12:05:14;;;;;;;6.53;1.90;;;;;;;;;;4956764;29;20043;-82
2023/12/22 12:07:50;;;;;;;5.05;1.90;;;;;;;;;;4955554;29;20051;-82
2023/12/22 12:10:52;;;;;;;5.97;1.65;;;;;;;;;;4957186;29;20047;-83
2023/12/22 12:13:25;;;;;;;6.07;1.70;;;;;;;;;;4940132;29;20058;-83
2023/12/22 12:15:58;;;;;;;6.13;1.67;;;;;;;;;;4940672;29;20051;-84
2023/12/22 12:18:33;;;;;;;6.45;1.88;;;;;;;;;;4956530;29;20058;-83
2023/12/22 12:21:08;;;;;;;5.30;1.60;;;;;;;;;;4955006;29;20047;-82
2023/12/22 12:23:38;;;;;;;6.80;1.60;;;;;;;;;;4955859;29;20066;-81
2023/12/22 12:26:12;;;;;;;4.50;1.70;;;;;;;;;;4955503;29;20043;-81
2023/12/22 12:28:50;;;;;;;10.05;1.92;;;;;;;;;;4939398;29;20047;-81
2023/12/22 12:31:41;;;;;;;5.82;1.60;;;;;;;;;;4956157;29;20495;-81
2023/12/22 12:34:11;;;;;;;5.65;1.80;;;;;;;;;;4955600;29;20047;-83
2023/12/22 12:36:42;;;;;;;5.72;1.50;;;;;;;;;;4957391;29;20514;-83
2023/12/22 12:39:17;;;;;;;7.45;1.50;;;;;;;;;;4956761;29;20478;-83
2023/12/22 12:41:53;;;;;;;2.30;1.40;;;;;;;;;;4956072;29;20352;-83
2023/12/22 12:44:25;;;;;;;5.13;2.22;;;;;;;;;;4956485;29;20146;-82
2023/12/22 12:46:55;;;;;;;4.22;1.45;;;;;;;;;;4957164;29;20054;-81
2023/12/22 12:49:29;;;;;;;4.18;1.83;;;;;;;;;;4954870;29;20058;-84
2023/12/22 12:52:01;;;;;;;6.68;1.70;;;;;;;;;;4955783;29;20043;-82
2023/12/22 12:54:32;;;;;;;3.10;1.17;;;;;;;;;;4956457;29;20055;-84
2023/12/22 12:57:03;;;;;;;5.55;1.50;;;;;;;;;;4956297;29;20054;-83
2023/12/22 12:59:34;;;;;;;2.63;1.45;;;;;;;;;;4923790;29;20054;-82
2023/12/22 13:02:05;;;;;;;3.10;1.55;;;;;;;;;;4922762;29;20066;-83
2023/12/22 13:04:38;;;;;;;5.22;1.70;;;;;;;;;;4955952;29;20047;-83
2023/12/22 13:07:13;;;;;;;4.60;1.60;;;;;;;;;;4955558;29;20043;-83
2023/12/22 13:09:44;;;;;;;9.35;1.65;;;;;;;;;;4937304;29;20402;-82
2023/12/22 13:12:16;;;;;;;5.28;1.80;;;;;;;;;;4955559;29;20047;-83
2023/12/22 13:14:46;;;;;;;3.30;1.30;;;;;;;;;;4938595;29;20055;-84
2023/12/22 13:17:16;;;;;;;2.63;1.30;;;;;;;;;;4956154;29;20051;-86
2023/12/22 13:19:47;;;;;;;4.38;1.50;;;;;;;;;;4937938;29;20051;-83
2023/12/22 13:22:19;;;;;;;6.60;1.60;;;;;;;;;;4954550;29;20227;-83
2023/12/22 13:24:57;;;;;;;;;;;;;;;;;;4956135;29;20043;-86
2023/12/22 13:27:28;;;;;;;7.38;1.80;;;;;;;;;;4955338;29;19926;-84
2023/12/22 13:29:58;;;;;;;3.83;1.73;;;;;;;;;;4956201;29;20047;-90
2023/12/22 13:32:28;;;;;;;5.07;1.70;;;;;;;;;;4955456;29;20066;-83
2023/12/22 13:34:58;;;;;;;3.58;2.45;;;;;;;;;;4938999;29;20395;-80
2023/12/22 13:37:30;;;;;;;6.07;1.60;;;;;;;;;;4955222;29;20047;-82
2023/12/22 13:40:07;;;;;;;7.35;1.90;;;;;;;;;;4938510;29;20047;-83
2023/12/22 13:42:38;;;;;;;5.60;1.73;;;;;;;;;;4954383;29;20051;-81
2023/12/22 13:45:11;;;;;;;7.00;1.63;;;;;;;;;;4955635;29;20394;-85
2023/12/22 13:47:47;;;;;;;4.35;1.80;;;;;;;;;;4955395;29;20054;-84
2023/12/22 13:50:22;;;;;;;5.72;1.52;;;;;;;;;;4955234;29;20505;-83
2023/12/22 13:52:53;;;;;;;4.10;1.60;;;;;;;;;;4954701;29;20043;-84
2023/12/22 13:55:23;;;;;;;2.28;1.50;;;;;;;;;;4936778;29;20047;-83
2023/12/22 13:58:00;;;;;;;5.18;1.75;;;;;;;;;;4954970;29;20051;-83
2023/12/22 14:00:32;;;;;;;5.38;1.98;;;;;;;;;;4937088;29;20056;-84
2023/12/22 14:03:03;;;;;;;6.22;1.63;;;;;;;;;;4937586;29;20051;-87
2023/12/22 14:05:37;;;;;;;6.35;1.67;;;;;;;;;;4955509;29;20051;-82
2023/12/22 14:08:07;;;;;;;5.28;1.60;;;;;;;;;;4929754;28;20419;-85
2023/12/22 14:10:37;;;;;;;4.47;1.42;;;;;;;;;;4952081;28;20059;-83
2023/12/22 14:13:07;;;;;;;8.02;6.00;;;;;;;;;;4953436;28;20047;-85
2023/12/22 14:15:53;;;;;;;8.85;4.25;;;;;;;;;;4950163;29;20456;-84
2023/12/22 14:18:23;;;;;;;8.50;3.67;;;;;;;;;;4929398;29;20051;-83
2023/12/22 14:20:53;;;;;;;5.38;1.67;;;;;;;;;;4956269;28;20070;-87
2023/12/22 14:23:23;;;;;;;5.35;2.17;;;;;;;;;;4939474;29;20066;-86
2023/12/22 14:25:56;;;;;;;2.72;1.75;;;;;;;;;;4956293;29;20433;-84
2023/12/22 14:28:28;;;;;;;3.33;1.63;;;;;;;;;;4938382;29;20047;-85
2023/12/22 14:30:58;;;;;;;3.30;1.35;;;;;;;;;;4939163;29;20054;-85
2023/12/22 14:33:28;;;;;;;6.78;1.77;;;;;;;;;;4956391;29;20526;-83
2023/12/22 14:35:58;;;;;;;3.63;2.13;;;;;;;;;;4956653;28;20126;-86
2023/12/22 14:38:29;;;;;;;3.03;1.70;;;;;;;;;;4956362;29;20051;-84
2023/12/22 14:41:00;;;;;;;3.03;1.67;;;;;;;;;;4956146;29;20055;-85
2023/12/22 14:43:31;;;;;;;6.35;1.75;;;;;;;;;;4956800;29;20405;-85
2023/12/22 14:46:01;;;;;;;9.15;1.90;;;;;;;;;;4956508;28;20494;-84
2023/12/22 14:48:31;;;;;;;3.42;1.60;;;;;;;;;;4956283;29;20051;-84
2023/12/22 14:51:02;;;;;;;3.67;1.83;;;;;;;;;;4939873;29;20051;-85
2023/12/22 14:53:33;;;;;;;4.05;1.63;;;;;;;;;;4941837;29;20055;-85
2023/12/22 14:56:04;;;;;;;3.78;1.95;;;;;;;;;;4957124;29;20066;-87
2023/12/22 14:58:35;;;;;;;9.93;6.60;;;;;;;;;;4957888;29;20039;-85
2023/12/22 15:01:13;;;;;;;12.65;5.25;;;;;;;;;;4958250;29;20494;-82
2023/12/22 15:03:43;;;;;;;3.88;1.63;;;;;;;;;;4959086;29;20039;-81
2023/12/22 15:06:13;;;;;;;7.22;3.72;;;;;;;;;;4941303;29;20055;-83
2023/12/22 15:08:48;;;;;;;11.48;5.97;;;;;;;;;;4960337;29;20051;-81
2023/12/22 15:11:18;;;;;;;2.63;1.40;;;;;;;;;;4939910;29;20047;-81